Time;durP1;ratioP1;P1;durP2;ratioP2;P2;SDS_P1;SDS_P2;PMS_P1;PMS_P2;Temp;Humidity;BMP_temperature;BMP_pressure;BME280_temperature;BME280_humidity;BME280_pressure;Samples;Min_cycle;Max_cycle;Signal;HPM_P1;HPM_P2
2023/03/09 00:01:56;;;;;;;;;;;;;;;9.35;100.00;98949.81;4985274;28;19914;-52
2023/03/09 00:04:22;;;;;;;;;;;;;;;9.31;100.00;98963.63;4982042;28;19940;-52
2023/03/09 00:06:48;;;;;;;;;;;;;;;9.54;100.00;98958.47;4982627;28;19918;-49
2023/03/09 00:09:14;;;;;;;;;;;;;;;9.18;100.00;98950.50;4982480;28;19975;-51
2023/03/09 00:11:40;;;;;;;;;;;;;;;9.36;100.00;98960.28;4984716;28;19919;-50
2023/03/09 00:14:06;;;;;;;;;;;;;;;9.51;100.00;98981.13;4983364;28;20012;-52
2023/03/09 00:16:31;;;;;;;;;;;;;;;9.24;100.00;98978.94;4982690;28;19936;-50
2023/03/09 00:18:57;;;;;;;;;;;;;;;9.22;100.00;98978.34;4986309;28;19914;-52
2023/03/09 00:21:40;;;;;;;;;;;;;;;9.29;100.00;98976.38;4985013;28;19932;-48
2023/03/09 00:24:20;;;;;;;;;;;;;;;9.13;100.00;98983.25;4985696;28;19914;-53
2023/03/09 00:26:49;;;;;;;;;;;;;;;9.29;100.00;99003.06;4983505;28;19949;-53
2023/03/09 00:29:15;;;;;;;;;;;;;;;9.07;100.00;99002.81;4980978;28;19922;-53
2023/03/09 00:31:41;;;;;;;;;;;;;;;9.24;100.00;99007.47;4982280;28;19914;-53
2023/03/09 00:34:07;;;;;;;;;;;;;;;9.29;100.00;99004.91;4982121;28;19937;-53
2023/03/09 00:36:34;;;;;;;;;;;;;;;9.16;100.00;99000.63;4990718;28;19926;-51
2023/03/09 00:39:01;;;;;;;;;;;;;;;9.13;100.00;98996.56;4987720;28;20384;-55
2023/03/09 00:41:28;;;;;;;;;;;;;;;8.97;100.00;99006.03;4982116;28;19913;-55
2023/03/09 00:43:54;;;;;;;;;;;;;;;9.04;100.00;99004.09;4982440;28;19918;-51
2023/03/09 00:46:19;;;;;;;;;;;;;;;8.95;100.00;99005.47;4984535;28;19918;-54
2023/03/09 00:48:45;;;;;;;;;;;;;;;9.18;100.00;99009.19;4982065;28;19940;-51
2023/03/09 00:51:11;;;;;;;;;;;;;;;9.15;100.00;99010.47;4990967;28;19920;-51
2023/03/09 00:53:37;;;;;;;;;;;;;;;9.02;100.00;99003.50;4983599;28;19929;-50
2023/03/09 00:56:04;;;;;;;;;;;;;;;8.97;100.00;99003.38;4975867;28;19914;-52
2023/03/09 00:58:30;;;;;;;;;;;;;;;9.08;100.00;99015.09;4975808;28;20020;-49
2023/03/09 01:00:56;;;;;;;;;;;;;;;8.98;100.00;99017.53;4984218;28;19918;-50
2023/03/09 01:03:21;;;;;;;;;;;;;;;9.13;100.00;99025.09;4997756;28;19953;-54
2023/03/09 01:05:46;;;;;;;;;;;;;;;8.99;100.00;99024.47;4983479;28;19941;-53
2023/03/09 01:08:12;;;;;;;;;;;;;;;9.30;100.00;99033.19;4983108;28;19948;-51
2023/03/09 01:10:38;;;;;;;;;;;;;;;9.51;100.00;99045.16;4986225;28;19910;-50
2023/03/09 01:13:03;;;;;;;;;;;;;;;9.16;100.00;99059.28;4982259;28;19918;-50
2023/03/09 01:15:29;;;;;;;;;;;;;;;9.42;100.00;99073.22;4983618;28;19941;-55
2023/03/09 01:17:55;;;;;;;;;;;;;;;9.30;100.00;99068.72;4981813;28;19914;-51
2023/03/09 01:20:21;;;;;;;;;;;;;;;9.38;100.00;99059.56;4975486;28;19918;-54
2023/03/09 01:22:48;;;;;;;;;;;;;;;9.49;100.00;99041.94;4979080;28;19923;-48
2023/03/09 01:25:14;;;;;;;;;;;;;;;9.21;100.00;99032.72;4991289;28;20301;-48
2023/03/09 01:27:40;;;;;;;;;;;;;;;9.32;100.00;99063.13;4987782;28;19919;-52
2023/03/09 01:30:06;;;;;;;;;;;;;;;9.30;100.00;99057.22;4976353;28;19922;-49
2023/03/09 01:32:32;;;;;;;;;;;;;;;9.41;100.00;99063.59;4986383;28;19921;-53
2023/03/09 01:34:57;;;;;;;;;;;;;;;9.21;100.00;99075.41;4958466;28;19918;-51
2023/03/09 01:37:23;;;;;;;;;;;;;;;9.34;100.00;99077.03;4987341;28;19957;-52
2023/03/09 01:39:48;;;;;;;;;;;;;;;9.30;100.00;99084.72;4989720;28;19949;-53
2023/03/09 01:42:14;;;;;;;;;;;;;;;9.45;100.00;99073.59;4988925;28;19914;-49
2023/03/09 01:44:39;;;;;;;;;;;;;;;9.42;100.00;99057.22;4988144;28;19914;-52
2023/03/09 01:47:05;;;;;;;;;;;;;;;9.46;100.00;99069.88;4988248;28;19918;-48
2023/03/09 01:49:37;;;;;;;;;;;;;;;9.42;100.00;99083.91;4991804;28;19914;-51
2023/03/09 01:52:26;;;;;;;;;;;;;;;9.36;100.00;99098.16;4994023;28;19930;-51
2023/03/09 01:55:07;;;;;;;;;;;;;;;9.39;100.00;99095.03;5002587;28;19914;-54
2023/03/09 01:57:32;;;;;;;;;;;;;;;9.29;100.00;99103.59;4990984;28;19919;-49
2023/03/09 02:00:07;;;;;;;;;;;;;;;9.20;100.00;99102.31;5004674;28;19969;-50
2023/03/09 02:02:42;;;;;;;;;;;;;;;9.48;100.00;99112.34;4986550;28;19981;-49
2023/03/09 02:05:17;;;;;;;;;;;;;;;9.50;100.00;99096.91;4984491;28;19914;-52
2023/03/09 02:07:45;;;;;;;;;;;;;;;9.47;100.00;99094.72;4970651;28;19923;-51
2023/03/09 02:10:34;;;;;;;;;;;;;;;9.57;100.00;99084.25;4991956;28;19921;-53
2023/03/09 02:13:03;;;;;;;;;;;;;;;9.38;100.00;99064.06;4986102;28;19936;-52
2023/03/09 02:15:29;;;;;;;;;;;;;;;9.39;100.00;99073.69;4989066;28;19914;-51
2023/03/09 02:17:54;;;;;;;;;;;;;;;9.29;100.00;99106.28;4992743;28;19914;-50
2023/03/09 02:20:24;;;;;;;;;;;;;;;9.21;100.00;99119.94;4977837;28;19989;-50
2023/03/09 02:22:49;;;;;;;;;;;;;;;9.44;100.00;99132.50;4997029;28;19918;-50
2023/03/09 02:25:27;;;;;;;;;;;;;;;9.47;100.00;99138.22;4979910;28;19918;-50
2023/03/09 02:27:53;;;;;;;;;;;;;;;9.52;100.00;99155.38;4991488;28;19918;-52
2023/03/09 02:30:19;;;;;;;;;;;;;;;9.53;100.00;99149.00;4979943;28;19937;-54
2023/03/09 02:32:45;;;;;;;;;;;;;;;8.86;100.00;99150.78;4985222;28;19946;-51
2023/03/09 02:35:10;;;;;;;;;;;;;;;9.27;100.00;99141.19;4991588;28;19918;-52
2023/03/09 02:37:40;;;;;;;;;;;;;;;9.27;100.00;99132.38;5006654;28;19914;-51
2023/03/09 02:40:17;;;;;;;;;;;;;;;9.14;100.00;99125.38;4982247;28;19916;-50
2023/03/09 02:42:44;;;;;;;;;;;;;;;9.29;100.00;99133.78;4989642;28;19993;-49
2023/03/09 02:45:12;;;;;;;;;;;;;;;9.23;100.00;99129.38;4993586;28;19935;-51
2023/03/09 02:47:38;;;;;;;;;;;;;;;9.35;100.00;99140.06;4981905;28;19932;-49
2023/03/09 02:50:06;;;;;;;;;;;;;;;9.31;100.00;99147.69;4969969;28;19914;-53
2023/03/09 02:52:31;;;;;;;;;;;;;;;9.37;100.00;99145.16;4990447;28;19922;-52
2023/03/09 02:54:57;;;;;;;;;;;;;;;9.41;100.00;99140.97;4992549;28;19922;-50
2023/03/09 02:57:24;;;;;;;;;;;;;;;9.06;100.00;99137.19;5001570;28;19950;-56
2023/03/09 02:59:50;;;;;;;;;;;;;;;9.15;100.00;99159.84;4998327;28;19921;-52
2023/03/09 03:02:15;;;;;;;;;;;;;;;9.28;100.00;99158.81;4976482;28;19921;-50
2023/03/09 03:04:41;;;;;;;;;;;;;;;9.26;100.00;99160.91;4997720;28;19915;-50
2023/03/09 03:07:08;;;;;;;;;;;;;;;9.38;100.00;99176.13;4987375;28;19918;-48
2023/03/09 03:09:34;;;;;;;;;;;;;;;9.19;100.00;99181.50;4997258;28;19929;-50
2023/03/09 03:11:59;;;;;;;;;;;;;;;9.11;100.00;99171.19;5001517;28;19914;-50
2023/03/09 03:14:26;;;;;;;;;;;;;;;9.15;100.00;99167.00;4990030;28;19928;-53
2023/03/09 03:16:51;;;;;;;;;;;;;;;9.25;100.00;99169.97;4984739;28;19985;-50
2023/03/09 03:19:19;;;;;;;;;;;;;;;9.21;100.00;99168.75;5005330;28;19943;-51
2023/03/09 03:21:44;;;;;;;;;;;;;;;9.22;100.00;99178.38;4982961;28;19945;-56
2023/03/09 03:24:09;;;;;;;;;;;;;;;9.33;100.00;99180.28;4977476;28;19921;-50
2023/03/09 03:26:36;;;;;;;;;;;;;;;9.32;100.00;99191.19;5004040;28;19918;-47
2023/03/09 03:29:06;;;;;;;;;;;;;;;9.25;100.00;99193.13;4988132;28;19921;-51
2023/03/09 03:31:32;;;;;;;;;;;;;;;9.31;100.00;99182.38;4993726;28;19913;-51
2023/03/09 03:33:58;;;;;;;;;;;;;;;9.23;100.00;99180.03;4974062;28;19944;-52
2023/03/09 03:36:26;;;;;;;;;;;;;;;9.18;100.00;99182.56;4972718;28;19922;-52
2023/03/09 03:38:52;;;;;;;;;;;;;;;9.18;100.00;99196.72;4999379;28;19940;-51
2023/03/09 03:41:17;;;;;;;;;;;;;;;9.32;100.00;99193.84;5004441;28;19914;-53
2023/03/09 03:43:47;;;;;;;;;;;;;;;9.12;100.00;99186.13;4995077;28;19914;-50
2023/03/09 03:46:14;;;;;;;;;;;;;;;9.40;100.00;99200.72;4985663;28;19921;-52
2023/03/09 03:48:39;;;;;;;;;;;;;;;9.38;100.00;99210.81;4988348;28;19942;-52
2023/03/09 03:51:06;;;;;;;;;;;;;;;9.25;100.00;99212.63;5016553;28;19936;-56
2023/03/09 03:53:32;;;;;;;;;;;;;;;9.10;100.00;99198.88;4999485;28;20013;-52
2023/03/09 03:56:00;;;;;;;;;;;;;;;9.28;100.00;99193.50;4975636;28;20428;-51
2023/03/09 03:58:26;;;;;;;;;;;;;;;9.30;100.00;99225.28;4989353;28;19922;-50
2023/03/09 04:00:51;;;;;;;;;;;;;;;9.20;100.00;99223.16;5015922;28;19914;-56
2023/03/09 04:03:20;;;;;;;;;;;;;;;9.33;100.00;99220.31;4984689;28;19918;-51
2023/03/09 04:05:46;;;;;;;;;;;;;;;8.99;100.00;99225.25;4988047;28;19910;-53
2023/03/09 04:08:13;;;;;;;;;;;;;;;8.82;100.00;99237.59;5006472;28;19926;-52
2023/03/09 04:10:40;;;;;;;;;;;;;;;8.97;100.00;99239.88;4994289;28;19990;-54
2023/03/09 04:13:08;;;;;;;;;;;;;;;9.14;100.00;99240.06;5010220;28;20779;-48
2023/03/09 04:15:34;;;;;;;;;;;;;;;9.09;100.00;99239.94;4977386;28;19929;-50
2023/03/09 04:18:01;;;;;;;;;;;;;;;9.23;100.00;99245.91;4987979;28;19914;-49
2023/03/09 04:20:27;;;;;;;;;;;;;;;9.06;100.00;99245.72;4993080;28;19925;-47
2023/03/09 04:22:54;;;;;;;;;;;;;;;8.71;100.00;99255.94;4987321;28;19918;-52
2023/03/09 04:25:22;;;;;;;;;;;;;;;9.11;100.00;99248.50;5018212;28;19914;-51
2023/03/09 04:27:48;;;;;;;;;;;;;;;9.03;100.00;99250.47;4987470;28;19925;-54
2023/03/09 04:30:21;;;;;;;;;;;;;;;9.04;100.00;99264.59;4998072;28;19965;-52
2023/03/09 04:32:50;;;;;;;;;;;;;;;8.99;100.00;99269.78;4987742;28;19968;-50
2023/03/09 04:35:16;;;;;;;;;;;;;;;9.02;100.00;99288.84;4997081;28;19950;-54
2023/03/09 04:37:43;;;;;;;;;;;;;;;8.89;100.00;99307.63;4990335;28;19973;-51
2023/03/09 04:40:10;;;;;;;;;;;;;;;8.99;100.00;99307.91;5025125;28;19914;-53
2023/03/09 04:42:36;;;;;;;;;;;;;;;9.18;100.00;99306.06;4984635;28;19914;-50
2023/03/09 04:45:03;;;;;;;;;;;;;;;9.21;100.00;99307.47;4997115;28;19949;-51
2023/03/09 04:47:29;;;;;;;;;;;;;;;9.08;100.00;99304.97;4988260;28;19944;-53
2023/03/09 04:49:54;;;;;;;;;;;;;;;9.20;100.00;99303.16;5005713;28;19918;-51
2023/03/09 04:52:20;;;;;;;;;;;;;;;9.19;100.00;99309.53;5010823;28;19953;-49
2023/03/09 04:54:46;;;;;;;;;;;;;;;9.21;100.00;99326.13;5011183;28;19925;-50
2023/03/09 04:57:12;;;;;;;;;;;;;;;9.31;100.00;99320.28;5004291;28;19937;-49
2023/03/09 04:59:38;;;;;;;;;;;;;;;9.19;100.00;99330.88;5002909;28;19914;-51
2023/03/09 05:02:03;;;;;;;;;;;;;;;9.08;100.00;99339.63;4996105;28;19918;-50
2023/03/09 05:04:37;;;;;;;;;;;;;;;9.07;100.00;99327.34;4988973;28;19931;-52
2023/03/09 05:07:04;;;;;;;;;;;;;;;8.73;100.00;99325.81;4994875;28;20159;-53
2023/03/09 05:09:30;;;;;;;;;;;;;;;9.05;100.00;99319.56;5013547;28;19918;-49
2023/03/09 05:11:56;;;;;;;;;;;;;;;9.08;100.00;99311.09;4988277;28;19965;-53
2023/03/09 05:14:22;;;;;;;;;;;;;;;9.06;100.00;99331.84;4990064;28;19921;-52
2023/03/09 05:16:51;;;;;;;;;;;;;;;9.32;100.00;99344.06;4985832;28;19914;-54
2023/03/09 05:19:19;;;;;;;;;;;;;;;9.20;100.00;99334.38;4985261;28;19924;-49
2023/03/09 05:21:45;;;;;;;;;;;;;;;9.19;100.00;99322.88;4986700;28;19945;-50
2023/03/09 05:24:13;;;;;;;;;;;;;;;9.09;100.00;99320.72;5003072;28;20365;-50
2023/03/09 05:26:39;;;;;;;;;;;;;;;9.22;100.00;99319.75;4990027;28;19992;-50
2023/03/09 05:29:05;;;;;;;;;;;;;;;9.33;100.00;99315.53;5000194;28;19918;-49
2023/03/09 05:31:34;;;;;;;;;;;;;;;9.12;100.00;99314.97;4988183;28;20005;-52
2023/03/09 05:34:00;;;;;;;;;;;;;;;9.17;100.00;99327.63;4988630;28;20017;-53
2023/03/09 05:36:26;;;;;;;;;;;;;;;8.97;100.00;99327.84;4991735;28;19918;-48
2023/03/09 05:38:54;;;;;;;;;;;;;;;9.15;100.00;99340.38;4993647;28;19918;-50
2023/03/09 05:41:21;;;;;;;;;;;;;;;9.26;100.00;99341.47;4983609;28;19969;-53
2023/03/09 05:43:50;;;;;;;;;;;;;;;9.09;100.00;99328.72;4986589;28;19906;-49
2023/03/09 05:46:16;;;;;;;;;;;;;;;9.24;100.00;99330.22;4981658;28;19922;-51
2023/03/09 05:48:42;;;;;;;;;;;;;;;9.35;100.00;99331.31;4990778;28;19913;-49
2023/03/09 05:51:08;;;;;;;;;;;;;;;9.39;100.00;99319.16;4978674;28;19948;-49
2023/03/09 05:53:34;;;;;;;;;;;;;;;9.30;100.00;99332.81;4983165;28;19906;-51
2023/03/09 05:56:01;;;;;;;;;;;;;;;9.27;100.00;99340.44;5003601;28;19991;-51
2023/03/09 05:58:28;;;;;;;;;;;;;;;8.82;100.00;99330.91;4996445;28;19929;-50
2023/03/09 06:00:54;;;;;;;;;;;;;;;8.93;100.00;99327.47;4981906;28;19922;-54
2023/03/09 06:03:20;;;;;;;;;;;;;;;9.10;100.00;99343.69;4985427;28;19914;-53
2023/03/09 06:06:00;;;;;;;;;;;;;;;9.06;100.00;99347.06;4994259;28;19914;-49
2023/03/09 06:08:26;;;;;;;;;;;;;;;9.14;100.00;99352.06;5027894;28;19918;-50
2023/03/09 06:10:53;;;;;;;;;;;;;;;9.22;100.00;99342.97;4980248;28;19914;-51
2023/03/09 06:13:20;;;;;;;;;;;;;;;9.16;100.00;99352.66;5008927;28;19914;-51
2023/03/09 06:15:46;;;;;;;;;;;;;;;9.26;100.00;99371.66;4979735;28;20017;-53
2023/03/09 06:18:13;;;;;;;;;;;;;;;9.31;100.00;99371.78;4994728;28;20076;-46
2023/03/09 06:20:39;;;;;;;;;;;;;;;9.31;100.00;99376.31;4977714;28;19921;-49
2023/03/09 06:23:04;;;;;;;;;;;;;;;9.39;100.00;99383.19;4989094;28;19918;-50
2023/03/09 06:25:31;;;;;;;;;;;;;;;9.40;100.00;99390.16;4984897;28;19961;-47
2023/03/09 06:27:57;;;;;;;;;;;;;;;9.44;100.00;99396.66;4966568;28;19949;-48
2023/03/09 06:30:26;;;;;;;;;;;;;;;9.50;100.00;99410.97;4994957;28;19974;-49
2023/03/09 06:32:53;;;;;;;;;;;;;;;9.53;100.00;99402.53;4984726;28;19920;-49
2023/03/09 06:35:18;;;;;;;;;;;;;;;9.68;100.00;99402.13;4986935;28;19925;-48
2023/03/09 06:37:45;;;;;;;;;;;;;;;9.65;100.00;99411.44;4976262;28;20008;-48
2023/03/09 06:40:12;;;;;;;;;;;;;;;9.65;100.00;99408.75;4981759;28;19914;-47
2023/03/09 06:42:39;;;;;;;;;;;;;;;9.59;100.00;99409.66;4983501;28;19907;-49
2023/03/09 06:45:05;;;;;;;;;;;;;;;9.38;100.00;99408.25;4992067;28;20258;-50
2023/03/09 06:47:31;;;;;;;;;;;;;;;9.60;100.00;99433.44;4983662;28;19928;-50
2023/03/09 06:50:03;;;;;;;;;;;;;;;9.60;100.00;99444.13;4973402;28;19942;-50
2023/03/09 06:52:31;;;;;;;;;;;;;;;9.64;100.00;99449.00;4979541;28;19911;-50
2023/03/09 06:54:57;;;;;;;;;;;;;;;9.53;100.00;99448.72;4995576;28;19965;-49
2023/03/09 06:57:23;;;;;;;;;;;;;;;9.58;100.00;99456.88;4986171;28;19941;-52
2023/03/09 06:59:49;;;;;;;;;;;;;;;9.76;100.00;99463.25;5004529;28;19917;-54
2023/03/09 07:02:15;;;;;;;;;;;;;;;9.66;100.00;99469.13;4985445;28;19910;-51
2023/03/09 07:04:41;;;;;;;;;;;;;;;9.73;100.00;99479.72;5007202;28;19922;-50
2023/03/09 07:07:07;;;;;;;;;;;;;;;9.58;100.00;99480.91;4985946;28;19986;-52
2023/03/09 07:09:34;;;;;;;;;;;;;;;9.68;100.00;99488.38;4987525;28;19925;-48
2023/03/09 07:11:59;;;;;;;;;;;;;;;9.64;100.00;99497.06;4981591;28;19914;-48
2023/03/09 07:14:27;;;;;;;;;;;;;;;9.64;100.00;99497.88;4990137;28;19922;-48
2023/03/09 07:16:53;;;;;;;;;;;;;;;9.74;100.00;99503.50;4984947;28;19916;-54
2023/03/09 07:19:18;;;;;;;;;;;;;;;9.77;100.00;99515.59;4992514;28;19929;-50
2023/03/09 07:21:43;;;;;;;;;;;;;;;9.87;100.00;99515.88;4982041;28;19910;-50
2023/03/09 07:24:09;;;;;;;;;;;;;;;9.83;100.00;99520.06;4987586;28;19977;-52
2023/03/09 07:26:34;;;;;;;;;;;;;;;9.93;100.00;99516.84;4992731;28;19948;-54
2023/03/09 07:29:00;;;;;;;;;;;;;;;10.09;100.00;99520.78;4984305;28;19929;-50
2023/03/09 07:31:28;;;;;;;;;;;;;;;9.93;100.00;99524.06;4988172;28;19994;-53
2023/03/09 07:33:57;;;;;;;;;;;;;;;9.67;100.00;99513.44;4987492;28;19932;-52
2023/03/09 07:36:23;;;;;;;;;;;;;;;9.78;100.00;99519.91;4986934;28;19919;-52
2023/03/09 07:38:50;;;;;;;;;;;;;;;9.72;100.00;99523.47;4984767;28;19913;-52
2023/03/09 07:41:15;;;;;;;;;;;;;;;10.03;100.00;99529.69;4991986;28;19921;-53
2023/03/09 07:43:43;;;;;;;;;;;;;;;10.03;100.00;99529.69;4988733;28;19982;-54
2023/03/09 07:46:17;;;;;;;;;;;;;;;10.12;100.00;99527.53;5002265;28;19936;-51
2023/03/09 07:48:44;;;;;;;;;;;;;;;10.11;100.00;99518.69;4990376;28;19914;-49
2023/03/09 07:51:09;;;;;;;;;;;;;;;10.17;100.00;99533.00;4987791;28;20361;-51
2023/03/09 07:53:35;;;;;;;;;;;;;;;10.26;100.00;99533.53;4982019;28;19926;-51
2023/03/09 07:56:03;;;;;;;;;;;;;;;10.09;100.00;99536.78;4986847;28;19996;-48
2023/03/09 07:58:29;;;;;;;;;;;;;;;10.25;100.00;99545.25;4984895;28;19922;-53
2023/03/09 08:00:54;;;;;;;;;;;;;;;10.13;100.00;99554.00;4979393;28;19906;-51
2023/03/09 08:03:20;;;;;;;;;;;;;;;10.42;100.00;99565.00;4981606;28;19914;-52
2023/03/09 08:05:45;;;;;;;;;;;;;;;10.36;100.00;99579.22;4986547;28;19918;-49
2023/03/09 08:08:11;;;;;;;;;;;;;;;10.42;100.00;99575.69;4981821;28;19922;-48
2023/03/09 08:10:37;;;;;;;;;;;;;;;10.50;100.00;99582.59;4984990;28;19978;-51
2023/03/09 08:13:02;;;;;;;;;;;;;;;10.63;100.00;99583.44;4987274;28;19914;-49
2023/03/09 08:15:28;;;;;;;;;;;;;;;10.67;100.00;99589.97;4987123;28;19914;-51
2023/03/09 08:17:54;;;;;;;;;;;;;;;10.46;100.00;99590.22;4986061;28;19914;-48
2023/03/09 08:20:20;;;;;;;;;;;;;;;10.70;100.00;99579.63;4990592;28;20002;-51
2023/03/09 08:22:45;;;;;;;;;;;;;;;10.82;100.00;99570.81;4984342;28;19945;-52
2023/03/09 08:25:12;;;;;;;;;;;;;;;10.81;100.00;99579.88;4979292;28;19921;-50
2023/03/09 08:27:39;;;;;;;;;;;;;;;10.86;100.00;99585.41;4985022;28;19989;-54
2023/03/09 08:30:05;;;;;;;;;;;;;;;11.05;100.00;99581.56;4987388;28;19922;-51
2023/03/09 08:32:30;;;;;;;;;;;;;;;11.14;99.91;99573.25;4988170;28;19921;-50
2023/03/09 08:34:56;;;;;;;;;;;;;;;11.24;98.72;99594.09;4991825;28;19914;-49
2023/03/09 08:37:22;;;;;;;;;;;;;;;11.22;100.00;99609.56;4947512;29;19926;-49
2023/03/09 08:39:50;;;;;;;;;;;;;;;11.47;96.80;99614.69;4948018;29;19921;-47
2023/03/09 08:42:15;;;;;;;;;;;;;;;11.50;97.17;99600.03;4950973;29;19922;-53
2023/03/09 08:44:40;;;;;;;;;;;;;;;11.54;97.10;99607.38;4948495;28;19915;-49
2023/03/09 08:47:05;;;;;;;;;;;;;;;11.61;95.73;99616.13;4953893;28;19980;-53
2023/03/09 08:49:31;;;;;;;;;;;;;;;11.48;95.98;99619.00;4948358;29;19922;-51
2023/03/09 08:51:56;;;;;;;;;;;;;;;11.24;97.71;99623.53;4941949;28;19930;-50
2023/03/09 08:54:21;;;;;;;;;;;;;;;11.49;98.26;99626.00;4944702;29;19915;-50
2023/03/09 08:56:47;;;;;;;;;;;;;;;11.36;98.80;99612.84;4948171;28;19922;-50
2023/03/09 08:59:12;;;;;;;;;;;;;;;11.37;98.24;99619.81;4940643;28;19914;-50
2023/03/09 09:01:37;;;;;;;;;;;;;;;11.52;96.89;99622.03;4943506;29;19915;-48
2023/03/09 09:04:04;;;;;;;;;;;;;;;11.57;98.04;99627.50;4944339;29;19934;-52
2023/03/09 09:06:29;;;;;;;;;;;;;;;11.64;95.25;99632.75;4940212;29;19914;-49
2023/03/09 09:08:54;;;;;;;;;;;;;;;11.67;96.29;99632.28;4943120;29;19938;-54
2023/03/09 09:11:20;;;;;;;;;;;;;;;11.44;96.26;99631.22;4939212;28;19922;-53
2023/03/09 09:13:45;;;;;;;;;;;;;;;11.49;96.16;99623.31;4943435;29;19972;-51
2023/03/09 09:16:11;;;;;;;;;;;;;;;11.41;96.99;99629.00;4941779;29;20038;-50
2023/03/09 09:18:37;;;;;;;;;;;;;;;11.42;96.61;99636.00;4941990;29;19915;-53
2023/03/09 09:21:06;;;;;;;;;;;;;;;11.48;96.88;99635.06;4944826;28;19925;-49
2023/03/09 09:23:31;;;;;;;;;;;;;;;11.70;95.12;99642.53;4946712;29;19983;-49
2023/03/09 09:25:57;;;;;;;;;;;;;;;11.62;95.20;99646.38;4945236;29;19910;-53
2023/03/09 09:28:23;;;;;;;;;;;;;;;11.78;93.51;99642.22;4944076;28;19950;-52
2023/03/09 09:30:59;;;;;;;;;;;;;;;11.98;93.86;99651.72;4945137;29;19925;-50
2023/03/09 09:33:26;;;;;;;;;;;;;;;11.87;92.86;99662.22;4944805;29;19915;-51
2023/03/09 09:35:55;;;;;;;;;;;;;;;12.05;91.99;99666.69;4959966;28;19977;-54
2023/03/09 09:38:21;;;;;;;;;;;;;;;11.99;92.22;99670.28;4981713;28;19914;-52
2023/03/09 09:40:47;;;;;;;;;;;;;;;12.08;92.15;99668.09;4981837;28;19934;-55
2023/03/09 09:43:12;;;;;;;;;;;;;;;12.14;91.35;99672.50;4978126;28;19914;-51
2023/03/09 09:45:43;;;;;;;;;;;;;;;12.03;92.85;99666.09;4982623;28;19925;-53
2023/03/09 09:48:11;;;;;;;;;;;;;;;12.14;90.85;99677.88;4976968;28;19918;-53
2023/03/09 09:50:36;;;;;;;;;;;;;;;12.04;91.99;99678.44;4979144;28;19913;-51
2023/03/09 09:53:20;;;;;;;;;;;;;;;12.00;94.18;99679.13;4982378;28;19922;-52
2023/03/09 09:55:47;;;;;;;;;;;;;;;12.01;92.96;99680.78;4986194;28;19921;-52
2023/03/09 09:58:30;;;;;;;;;;;;;;;12.00;91.66;99676.47;4981270;28;19918;-51
2023/03/09 10:00:57;;;;;;;;;;;;;;;11.97;92.55;99676.91;4982583;28;19936;-53
2023/03/09 10:03:25;;;;;;;;;;;;;;;12.15;92.83;99679.50;4977685;28;19981;-52
2023/03/09 10:05:57;;;;;;;;;;;;;;;12.19;93.05;99687.88;4978795;28;19964;-51
2023/03/09 10:08:22;;;;;;;;;;;;;;;12.05;91.74;99698.03;4975407;28;19943;-50
2023/03/09 10:10:49;;;;;;;;;;;;;;;12.33;89.83;99696.50;4978811;28;19915;-47
2023/03/09 10:13:19;;;;;;;;;;;;;;;12.14;90.00;99685.91;4979845;28;19922;-53
2023/03/09 10:15:44;;;;;;;;;;;;;;;12.22;91.85;99687.41;4986241;28;19918;-53
2023/03/09 10:18:13;;;;;;;;;;;;;;;12.44;90.45;99697.53;4979677;28;19918;-51
2023/03/09 10:20:41;;;;;;;;;;;;;;;12.55;88.56;99696.69;4980523;28;20253;-51
2023/03/09 10:23:27;;;;;;;;;;;;;;;12.58;88.00;99696.22;4977622;28;19945;-48
2023/03/09 10:25:54;;;;;;;;;;;;;;;12.61;88.22;99686.88;4987963;28;19917;-51
2023/03/09 10:28:20;;;;;;;;;;;;;;;12.72;93.86;99696.78;4985137;28;19930;-50
2023/03/09 10:30:52;;;;;;;;;;;;;;;12.66;88.63;99696.91;4985748;28;19913;-49
2023/03/09 10:33:44;;;;;;;;;;;;;;;12.56;89.34;99684.09;4987339;28;19914;-51
2023/03/09 10:36:13;;;;;;;;;;;;;;;12.46;90.06;99688.22;4981102;28;19953;-53
2023/03/09 10:38:38;;;;;;;;;;;;;;;12.44;89.33;99690.28;4984928;28;19921;-49
2023/03/09 10:41:10;;;;;;;;;;;;;;;12.48;89.07;99691.47;4985403;28;19918;-51
2023/03/09 10:43:36;;;;;;;;;;;;;;;12.37;90.93;99680.75;4982750;28;19981;-49
2023/03/09 10:46:11;;;;;;;;;;;;;;;12.36;89.96;99679.94;4983712;28;19921;-52
2023/03/09 10:48:37;;;;;;;;;;;;;;;12.42;89.31;99678.19;4989614;28;19929;-48
2023/03/09 10:51:04;;;;;;;;;;;;;;;12.35;90.67;99675.63;4988098;28;19913;-50
2023/03/09 10:53:33;;;;;;;;;;;;;;;12.28;91.19;99673.06;4992526;28;19914;-50
2023/03/09 10:56:11;;;;;;;;;;;;;;;12.37;91.74;99678.88;4989322;28;19918;-52
2023/03/09 10:58:36;;;;;;;;;;;;;;;12.51;91.61;99692.03;4992944;28;19943;-46
2023/03/09 11:01:02;;;;;;;;;;;;;;;12.62;90.73;99699.25;4986643;28;19922;-53
2023/03/09 11:03:33;;;;;;;;;;;;;;;12.51;90.12;99700.09;4978180;28;19917;-49
2023/03/09 11:06:17;;;;;;;;;;;;;;;12.48;89.83;99696.84;4992636;28;20021;-51
2023/03/09 11:08:53;;;;;;;;;;;;;;;12.49;90.02;99692.28;4990817;28;19929;-49
2023/03/09 11:11:20;;;;;;;;;;;;;;;12.46;91.57;99695.44;4971442;28;19921;-51
2023/03/09 11:13:46;;;;;;;;;;;;;;;12.58;91.76;99700.75;4986085;28;19915;-53
2023/03/09 11:16:23;;;;;;;;;;;;;;;12.61;90.15;99705.66;4997669;28;19914;-52
2023/03/09 11:19:03;;;;;;;;;;;;;;;12.58;89.59;99708.81;4985993;28;19915;-47
2023/03/09 11:21:29;;;;;;;;;;;;;;;12.61;88.46;99714.53;4988753;28;19922;-50
2023/03/09 11:23:54;;;;;;;;;;;;;;;12.71;89.46;99705.88;4988227;28;19944;-50
2023/03/09 11:26:20;;;;;;;;;;;;;;;12.61;91.92;99708.34;4989111;28;19914;-51
2023/03/09 11:29:02;;;;;;;;;;;;;;;12.79;90.40;99711.91;4984945;28;19925;-49
2023/03/09 11:31:36;;;;;;;;;;;;;;;12.66;91.63;99705.75;4987243;28;19982;-50
2023/03/09 11:34:02;;;;;;;;;;;;;;;12.71;91.82;99695.16;4983819;28;19984;-47
2023/03/09 11:36:39;;;;;;;;;;;;;;;12.61;91.97;99686.88;4991509;28;19932;-50
2023/03/09 11:39:05;;;;;;;;;;;;;;;12.47;93.04;99697.06;4990841;28;19985;-51
2023/03/09 11:41:33;;;;;;;;;;;;;;;12.41;94.17;99688.09;4991974;28;19940;-49
2023/03/09 11:44:06;;;;;;;;;;;;;;;12.45;94.67;99694.59;4984268;28;19993;-50
2023/03/09 11:46:34;;;;;;;;;;;;;;;12.49;95.73;99694.94;4982334;28;19914;-50
2023/03/09 11:49:02;;;;;;;;;;;;;;;12.38;93.36;99690.44;4984478;28;19926;-51
2023/03/09 11:51:30;;;;;;;;;;;;;;;12.45;93.80;99693.78;4983577;28;19949;-49
2023/03/09 11:54:01;;;;;;;;;;;;;;;12.43;95.32;99696.69;4989908;28;19914;-50
2023/03/09 11:56:32;;;;;;;;;;;;;;;12.22;95.40;99689.25;4987885;28;19920;-52
2023/03/09 11:59:14;;;;;;;;;;;;;;;12.26;97.75;99696.63;4988944;28;19914;-49
2023/03/09 12:01:47;;;;;;;;;;;;;;;12.22;97.02;99686.59;4987057;28;19910;-49
2023/03/09 12:04:14;;;;;;;;;;;;;;;12.30;99.44;99676.31;4986357;28;19935;-48
2023/03/09 12:06:50;;;;;;;;;;;;;;;12.19;99.25;99672.59;4983005;28;19919;-53
2023/03/09 12:09:36;;;;;;;;;;;;;;;12.19;99.56;99669.94;4986925;28;19934;-48
2023/03/09 12:12:14;;;;;;;;;;;;;;;12.33;98.26;99669.69;4977588;28;19921;-49
2023/03/09 12:14:42;;;;;;;;;;;;;;;12.18;100.00;99670.97;4986437;28;19914;-51
2023/03/09 12:17:13;;;;;;;;;;;;;;;12.26;98.88;99669.00;4989671;28;20013;-50
2023/03/09 12:19:45;;;;;;;;;;;;;;;12.17;100.00;99666.66;4979082;28;19915;-51
2023/03/09 12:22:33;;;;;;;;;;;;;;;12.32;98.98;99679.59;4985682;28;19948;-47
2023/03/09 12:25:03;;;;;;;;;;;;;;;12.27;99.18;99670.63;4976282;28;19966;-50
2023/03/09 12:27:29;;;;;;;;;;;;;;;12.34;97.60;99682.03;4974968;28;19918;-49
2023/03/09 12:29:57;;;;;;;;;;;;;;;12.23;98.86;99675.66;4985652;28;19918;-47
2023/03/09 12:32:25;;;;;;;;;;;;;;;12.08;100.00;99672.63;4984555;28;19914;-47
2023/03/09 12:34:53;;;;;;;;;;;;;;;12.35;98.96;99675.63;4984820;28;19977;-51
2023/03/09 12:37:28;;;;;;;;;;;;;;;12.40;100.00;99670.38;4988226;28;19925;-51
2023/03/09 12:40:12;;;;;;;;;;;;;;;12.48;97.38;99671.88;4985972;28;19918;-49
2023/03/09 12:42:39;;;;;;;;;;;;;;;12.56;97.35;99668.81;4985919;28;19942;-52
2023/03/09 12:45:10;;;;;;;;;;;;;;;12.64;96.86;99662.25;4986272;28;19929;-50
2023/03/09 12:47:44;;;;;;;;;;;;;;;12.70;97.57;99652.44;4987943;28;19925;-51
2023/03/09 12:50:24;;;;;;;;;;;;;;;12.62;97.85;99656.31;4987186;28;19914;-56